sensor_id;sensor_type;location;lat;lon;timestamp;pressure;altitude;pressure_sealevel;temperature;humidity
26376;BME280;30544;42.196;24.336;2023-02-04T00:02:00;99080.28;;;4.48;49.58
26376;BME280;30544;42.196;24.336;2023-02-04T00:04:26;99080.94;;;4.43;50.81
26376;BME280;30544;42.196;24.336;2023-02-04T00:06:53;99078.81;;;4.32;51.78
26376;BME280;30544;42.196;24.336;2023-02-04T00:09:20;99079.03;;;4.31;51.37
26376;BME280;30544;42.196;24.336;2023-02-04T00:11:48;99079.84;;;4.18;51.45
26376;BME280;30544;42.196;24.336;2023-02-04T00:14:15;99076.06;;;4.19;52.68
26376;BME280;30544;42.196;24.336;2023-02-04T00:16:41;99069.28;;;3.88;53.50
26376;BME280;30544;42.196;24.336;2023-02-04T00:19:08;99060.66;;;4.11;53.98
26376;BME280;30544;42.196;24.336;2023-02-04T00:21:35;99053.66;;;4.15;53.53
26376;BME280;30544;42.196;24.336;2023-02-04T00:24:02;99059.59;;;4.06;53.69
26376;BME280;30544;42.196;24.336;2023-02-04T00:26:29;99062.09;;;4.01;54.78
26376;BME280;30544;42.196;24.336;2023-02-04T00:28:57;99059.16;;;3.96;54.67
26376;BME280;30544;42.196;24.336;2023-02-04T00:31:24;99060.00;;;3.89;54.10
26376;BME280;30544;42.196;24.336;2023-02-04T00:33:51;99053.22;;;3.72;54.27
26376;BME280;30544;42.196;24.336;2023-02-04T00:36:17;99048.19;;;3.89;54.28
26376;BME280;30544;42.196;24.336;2023-02-04T00:38:44;99057.63;;;3.73;54.70
26376;BME280;30544;42.196;24.336;2023-02-04T00:41:11;99047.31;;;3.88;54.66
26376;BME280;30544;42.196;24.336;2023-02-04T00:43:38;99054.91;;;3.80;54.14
26376;BME280;30544;42.196;24.336;2023-02-04T00:46:06;99031.03;;;3.67;55.11
26376;BME280;30544;42.196;24.336;2023-02-04T00:48:32;99032.75;;;4.01;53.88
26376;BME280;30544;42.196;24.336;2023-02-04T00:51:00;99028.13;;;4.21;54.08
26376;BME280;30544;42.196;24.336;2023-02-04T00:53:26;99003.84;;;4.12;53.78
26376;BME280;30544;42.196;24.336;2023-02-04T00:55:53;99003.41;;;4.28;54.46
26376;BME280;30544;42.196;24.336;2023-02-04T00:58:20;98999.84;;;4.08;54.12
26376;BME280;30544;42.196;24.336;2023-02-04T01:00:46;98988.63;;;4.16;53.80
26376;BME280;30544;42.196;24.336;2023-02-04T01:03:15;98988.44;;;4.24;54.23
26376;BME280;30544;42.196;24.336;2023-02-04T01:05:41;98978.91;;;4.13;54.36
26376;BME280;30544;42.196;24.336;2023-02-04T01:08:08;98971.75;;;4.12;55.06
26376;BME280;30544;42.196;24.336;2023-02-04T01:10:35;98970.03;;;4.18;55.20
26376;BME280;30544;42.196;24.336;2023-02-04T01:13:02;98965.78;;;4.35;53.63
26376;BME280;30544;42.196;24.336;2023-02-04T01:15:28;98959.69;;;4.40;53.76
26376;BME280;30544;42.196;24.336;2023-02-04T01:17:55;98945.94;;;4.40;53.86
26376;BME280;30544;42.196;24.336;2023-02-04T01:20:23;98952.50;;;4.32;54.54
26376;BME280;30544;42.196;24.336;2023-02-04T01:22:50;98953.56;;;4.31;53.87
26376;BME280;30544;42.196;24.336;2023-02-04T01:25:17;98947.63;;;4.34;54.93
26376;BME280;30544;42.196;24.336;2023-02-04T01:27:44;98940.69;;;4.25;55.06
26376;BME280;30544;42.196;24.336;2023-02-04T01:30:13;98932.06;;;4.21;55.30
26376;BME280;30544;42.196;24.336;2023-02-04T01:32:40;98931.22;;;4.21;54.96
26376;BME280;30544;42.196;24.336;2023-02-04T01:35:08;98926.91;;;4.45;54.60
26376;BME280;30544;42.196;24.336;2023-02-04T01:37:36;98923.50;;;4.49;54.70
26376;BME280;30544;42.196;24.336;2023-02-04T01:40:03;98918.72;;;4.25;55.58
26376;BME280;30544;42.196;24.336;2023-02-04T01:42:30;98914.78;;;3.75;56.42
26376;BME280;30544;42.196;24.336;2023-02-04T01:44:57;98913.91;;;3.94;56.06
26376;BME280;30544;42.196;24.336;2023-02-04T01:47:24;98911.34;;;4.26;55.32
26376;BME280;30544;42.196;24.336;2023-02-04T01:49:53;98897.81;;;4.31;56.10
26376;BME280;30544;42.196;24.336;2023-02-04T01:52:21;98893.63;;;4.02;56.41
26376;BME280;30544;42.196;24.336;2023-02-04T01:54:50;98895.72;;;4.26;55.31
26376;BME280;30544;42.196;24.336;2023-02-04T01:57:18;98888.09;;;4.28;55.73
26376;BME280;30544;42.196;24.336;2023-02-04T01:59:46;98890.25;;;4.13;55.80
26376;BME280;30544;42.196;24.336;2023-02-04T02:02:38;98881.59;;;4.03;56.75
26376;BME280;30544;42.196;24.336;2023-02-04T02:05:07;98876.75;;;3.98;58.64
26376;BME280;30544;42.196;24.336;2023-02-04T02:07:35;98872.91;;;4.19;57.95
26376;BME280;30544;42.196;24.336;2023-02-04T02:10:04;98875.25;;;4.09;57.65
26376;BME280;30544;42.196;24.336;2023-02-04T02:12:32;98874.81;;;4.25;58.62
26376;BME280;30544;42.196;24.336;2023-02-04T02:14:59;98870.16;;;4.26;58.56
26376;BME280;30544;42.196;24.336;2023-02-04T02:17:26;98870.03;;;3.81;59.80
26376;BME280;30544;42.196;24.336;2023-02-04T02:19:53;98863.44;;;4.02;58.70
26376;BME280;30544;42.196;24.336;2023-02-04T02:22:23;98868.75;;;3.90;59.10
26376;BME280;30544;42.196;24.336;2023-02-04T02:24:54;98859.41;;;4.11;58.87
26376;BME280;30544;42.196;24.336;2023-02-04T02:27:21;98849.97;;;3.93;58.69
26376;BME280;30544;42.196;24.336;2023-02-04T02:29:48;98859.16;;;4.19;58.94
26376;BME280;30544;42.196;24.336;2023-02-04T02:32:16;98858.56;;;4.10;58.43
26376;BME280;30544;42.196;24.336;2023-02-04T02:34:43;98840.19;;;4.17;58.76
26376;BME280;30544;42.196;24.336;2023-02-04T02:37:11;98845.06;;;4.09;58.25
26376;BME280;30544;42.196;24.336;2023-02-04T02:39:39;98845.13;;;3.82;60.24
26376;BME280;30544;42.196;24.336;2023-02-04T02:42:11;98827.75;;;4.02;59.17
26376;BME280;30544;42.196;24.336;2023-02-04T02:44:39;98826.91;;;4.08;58.77
26376;BME280;30544;42.196;24.336;2023-02-04T02:47:11;98827.34;;;4.05;58.89
26376;BME280;30544;42.196;24.336;2023-02-04T02:49:39;98811.69;;;4.12;59.11
26376;BME280;30544;42.196;24.336;2023-02-04T02:52:09;98805.56;;;4.16;58.23
26376;BME280;30544;42.196;24.336;2023-02-04T02:54:36;98811.72;;;3.99;58.09
26376;BME280;30544;42.196;24.336;2023-02-04T02:57:10;98812.97;;;4.09;59.12
26376;BME280;30544;42.196;24.336;2023-02-04T02:59:37;98808.78;;;4.07;59.30
26376;BME280;30544;42.196;24.336;2023-02-04T03:02:05;98801.13;;;4.15;58.19
26376;BME280;30544;42.196;24.336;2023-02-04T03:04:38;98796.91;;;4.13;58.52
26376;BME280;30544;42.196;24.336;2023-02-04T03:07:06;98792.44;;;4.18;59.10
26376;BME280;30544;42.196;24.336;2023-02-04T03:09:33;98794.31;;;4.31;58.12
26376;BME280;30544;42.196;24.336;2023-02-04T03:12:00;98797.31;;;4.23;59.70
26376;BME280;30544;42.196;24.336;2023-02-04T03:14:29;98786.50;;;4.28;59.12
26376;BME280;30544;42.196;24.336;2023-02-04T03:16:56;98782.97;;;4.14;60.24
26376;BME280;30544;42.196;24.336;2023-02-04T03:19:24;98781.47;;;4.18;60.56
26376;BME280;30544;42.196;24.336;2023-02-04T03:21:52;98775.97;;;4.18;59.66
26376;BME280;30544;42.196;24.336;2023-02-04T03:24:19;98783.19;;;4.13;59.55
26376;BME280;30544;42.196;24.336;2023-02-04T03:26:46;98773.28;;;4.12;60.97
26376;BME280;30544;42.196;24.336;2023-02-04T03:29:12;98767.28;;;4.28;60.57
26376;BME280;30544;42.196;24.336;2023-02-04T03:31:40;98769.88;;;4.16;60.19
26376;BME280;30544;42.196;24.336;2023-02-04T03:34:07;98764.63;;;4.08;60.11
26376;BME280;30544;42.196;24.336;2023-02-04T03:36:34;98762.03;;;4.27;59.85
26376;BME280;30544;42.196;24.336;2023-02-04T03:39:02;98749.41;;;4.12;59.58
26376;BME280;30544;42.196;24.336;2023-02-04T03:41:29;98746.22;;;4.15;60.17
26376;BME280;30544;42.196;24.336;2023-02-04T03:43:56;98737.00;;;3.97;61.39
26376;BME280;30544;42.196;24.336;2023-02-04T03:46:22;98731.34;;;3.91;61.33
26376;BME280;30544;42.196;24.336;2023-02-04T03:48:51;98731.13;;;3.93;61.34
26376;BME280;30544;42.196;24.336;2023-02-04T03:51:18;98725.00;;;3.91;61.00
26376;BME280;30544;42.196;24.336;2023-02-04T03:53:45;98727.63;;;3.66;62.25
26376;BME280;30544;42.196;24.336;2023-02-04T03:56:11;98716.41;;;3.68;61.90
26376;BME280;30544;42.196;24.336;2023-02-04T03:58:38;98709.50;;;3.58;61.70
26376;BME280;30544;42.196;24.336;2023-02-04T04:01:05;98725.75;;;3.60;61.20
26376;BME280;30544;42.196;24.336;2023-02-04T04:03:32;98723.44;;;3.50;61.89
26376;BME280;30544;42.196;24.336;2023-02-04T04:06:00;98724.91;;;3.46;63.15
26376;BME280;30544;42.196;24.336;2023-02-04T04:08:29;98710.63;;;3.18;64.57
26376;BME280;30544;42.196;24.336;2023-02-04T04:10:56;98718.66;;;2.93;65.40
26376;BME280;30544;42.196;24.336;2023-02-04T04:13:23;98727.31;;;3.03;65.49
26376;BME280;30544;42.196;24.336;2023-02-04T04:15:49;98727.91;;;2.79;66.58
26376;BME280;30544;42.196;24.336;2023-02-04T04:18:16;98734.03;;;3.07;65.44
26376;BME280;30544;42.196;24.336;2023-02-04T04:20:43;98730.47;;;3.07;65.08
26376;BME280;30544;42.196;24.336;2023-02-04T04:23:11;98720.13;;;3.09;65.50
26376;BME280;30544;42.196;24.336;2023-02-04T04:25:38;98716.97;;;2.92;64.84
26376;BME280;30544;42.196;24.336;2023-02-04T04:28:05;98709.56;;;3.12;66.23
26376;BME280;30544;42.196;24.336;2023-02-04T04:30:31;98711.47;;;3.12;65.15
26376;BME280;30544;42.196;24.336;2023-02-04T04:32:58;98704.28;;;3.17;64.58
26376;BME280;30544;42.196;24.336;2023-02-04T04:35:25;98701.56;;;3.17;64.67
26376;BME280;30544;42.196;24.336;2023-02-04T04:37:51;98707.06;;;3.11;65.28
26376;BME280;30544;42.196;24.336;2023-02-04T04:40:20;98710.63;;;3.18;64.73
26376;BME280;30544;42.196;24.336;2023-02-04T04:42:46;98709.78;;;3.17;65.36
26376;BME280;30544;42.196;24.336;2023-02-04T04:45:13;98698.38;;;3.33;65.35
26376;BME280;30544;42.196;24.336;2023-02-04T04:47:40;98689.31;;;3.40;65.09
26376;BME280;30544;42.196;24.336;2023-02-04T04:50:07;98692.06;;;3.26;64.41
26376;BME280;30544;42.196;24.336;2023-02-04T04:52:34;98700.94;;;3.15;64.44
26376;BME280;30544;42.196;24.336;2023-02-04T04:55:01;98681.97;;;3.14;65.04
26376;BME280;30544;42.196;24.336;2023-02-04T04:57:29;98682.97;;;3.32;63.96
26376;BME280;30544;42.196;24.336;2023-02-04T04:59:56;98690.19;;;3.20;64.50
26376;BME280;30544;42.196;24.336;2023-02-04T05:02:22;98686.19;;;3.23;64.01
26376;BME280;30544;42.196;24.336;2023-02-04T05:04:49;98681.50;;;3.37;63.87
26376;BME280;30544;42.196;24.336;2023-02-04T05:07:16;98682.19;;;3.12;65.68
26376;BME280;30544;42.196;24.336;2023-02-04T05:09:43;98687.00;;;3.37;64.32
26376;BME280;30544;42.196;24.336;2023-02-04T05:12:09;98687.03;;;3.23;65.25
26376;BME280;30544;42.196;24.336;2023-02-04T05:14:37;98704.53;;;3.22;65.07
26376;BME280;30544;42.196;24.336;2023-02-04T05:17:04;98701.56;;;3.17;66.20
26376;BME280;30544;42.196;24.336;2023-02-04T05:19:31;98693.75;;;3.27;65.55
26376;BME280;30544;42.196;24.336;2023-02-04T05:21:58;98707.19;;;3.49;64.75
26376;BME280;30544;42.196;24.336;2023-02-04T05:24:26;98711.44;;;3.45;64.51
26376;BME280;30544;42.196;24.336;2023-02-04T05:26:53;98697.53;;;3.40;63.84
26376;BME280;30544;42.196;24.336;2023-02-04T05:29:19;98694.53;;;3.48;64.67
26376;BME280;30544;42.196;24.336;2023-02-04T05:31:48;98698.16;;;3.35;65.56
26376;BME280;30544;42.196;24.336;2023-02-04T05:34:14;98684.22;;;3.43;65.29
26376;BME280;30544;42.196;24.336;2023-02-04T05:36:41;98684.00;;;3.45;65.26
26376;BME280;30544;42.196;24.336;2023-02-04T05:39:08;98685.22;;;3.62;63.95
26376;BME280;30544;42.196;24.336;2023-02-04T05:41:35;98679.88;;;3.80;64.65
26376;BME280;30544;42.196;24.336;2023-02-04T05:44:02;98688.56;;;3.77;63.00
26376;BME280;30544;42.196;24.336;2023-02-04T05:46:29;98691.41;;;3.44;63.89
26376;BME280;30544;42.196;24.336;2023-02-04T05:48:57;98697.91;;;3.50;63.43
26376;BME280;30544;42.196;24.336;2023-02-04T05:51:23;98685.28;;;3.42;63.38
26376;BME280;30544;42.196;24.336;2023-02-04T05:53:50;98692.34;;;3.76;63.49
26376;BME280;30544;42.196;24.336;2023-02-04T05:56:17;98708.94;;;3.23;63.75
26376;BME280;30544;42.196;24.336;2023-02-04T05:58:44;98695.84;;;3.39;63.56
26376;BME280;30544;42.196;24.336;2023-02-04T06:01:11;98685.88;;;3.51;62.91
26376;BME280;30544;42.196;24.336;2023-02-04T06:03:38;98695.78;;;3.52;63.32
26376;BME280;30544;42.196;24.336;2023-02-04T06:06:06;98700.84;;;3.61;63.36
26376;BME280;30544;42.196;24.336;2023-02-04T06:08:33;98705.47;;;3.61;63.07
26376;BME280;30544;42.196;24.336;2023-02-04T06:11:00;98706.28;;;3.68;63.29
26376;BME280;30544;42.196;24.336;2023-02-04T06:13:27;98697.31;;;3.41;62.46
26376;BME280;30544;42.196;24.336;2023-02-04T06:15:53;98710.34;;;3.52;62.87
26376;BME280;30544;42.196;24.336;2023-02-04T06:18:20;98710.97;;;3.61;64.06
26376;BME280;30544;42.196;24.336;2023-02-04T06:20:47;98712.09;;;3.40;64.48
26376;BME280;30544;42.196;24.336;2023-02-04T06:23:15;98711.16;;;3.66;63.61
26376;BME280;30544;42.196;24.336;2023-02-04T06:25:42;98714.16;;;3.58;64.47
26376;BME280;30544;42.196;24.336;2023-02-04T06:28:09;98718.94;;;3.69;63.69
26376;BME280;30544;42.196;24.336;2023-02-04T06:30:36;98723.56;;;3.82;62.64
26376;BME280;30544;42.196;24.336;2023-02-04T06:33:02;98727.00;;;3.64;63.83
26376;BME280;30544;42.196;24.336;2023-02-04T06:35:29;98714.31;;;3.76;62.99
26376;BME280;30544;42.196;24.336;2023-02-04T06:37:56;98709.28;;;3.60;63.80
26376;BME280;30544;42.196;24.336;2023-02-04T06:40:24;98713.56;;;3.36;64.05
26376;BME280;30544;42.196;24.336;2023-02-04T06:42:51;98704.72;;;3.27;63.83
26376;BME280;30544;42.196;24.336;2023-02-04T06:45:18;98703.44;;;3.37;64.62
26376;BME280;30544;42.196;24.336;2023-02-04T06:47:44;98707.63;;;3.46;64.69
26376;BME280;30544;42.196;24.336;2023-02-04T06:50:11;98725.38;;;3.37;65.16
26376;BME280;30544;42.196;24.336;2023-02-04T06:52:43;98724.06;;;3.59;64.12
26376;BME280;30544;42.196;24.336;2023-02-04T06:55:10;98721.09;;;3.60;64.12
26376;BME280;30544;42.196;24.336;2023-02-04T06:57:38;98724.63;;;3.81;62.21
26376;BME280;30544;42.196;24.336;2023-02-04T07:00:06;98728.19;;;3.81;61.26
26376;BME280;30544;42.196;24.336;2023-02-04T07:02:33;98727.81;;;3.71;61.60
26376;BME280;30544;42.196;24.336;2023-02-04T07:05:01;98729.66;;;3.90;61.62
26376;BME280;30544;42.196;24.336;2023-02-04T07:07:28;98738.38;;;4.26;60.32
26376;BME280;30544;42.196;24.336;2023-02-04T07:09:55;98741.63;;;4.47;60.30
26376;BME280;30544;42.196;24.336;2023-02-04T07:12:21;98734.84;;;4.81;58.93
26376;BME280;30544;42.196;24.336;2023-02-04T07:14:50;98728.03;;;4.91;58.99
26376;BME280;30544;42.196;24.336;2023-02-04T07:17:16;98719.03;;;5.02;59.90
26376;BME280;30544;42.196;24.336;2023-02-04T07:19:43;98716.22;;;5.33;58.60
26376;BME280;30544;42.196;24.336;2023-02-04T07:22:10;98719.66;;;5.29;59.32
26376;BME280;30544;42.196;24.336;2023-02-04T07:24:37;98726.44;;;5.69;59.10
26376;BME280;30544;42.196;24.336;2023-02-04T07:27:03;98716.03;;;5.96;58.83
26376;BME280;30544;42.196;24.336;2023-02-04T07:29:30;98712.31;;;5.84;59.44
26376;BME280;30544;42.196;24.336;2023-02-04T07:31:58;98700.84;;;6.24;59.00
26376;BME280;30544;42.196;24.336;2023-02-04T07:34:25;98698.59;;;6.32;60.75
26376;BME280;30544;42.196;24.336;2023-02-04T07:36:52;98706.66;;;7.29;59.46
26376;BME280;30544;42.196;24.336;2023-02-04T07:39:19;98694.88;;;7.80;57.58
26376;BME280;30544;42.196;24.336;2023-02-04T07:41:45;98690.16;;;7.93;56.17
26376;BME280;30544;42.196;24.336;2023-02-04T07:44:12;98697.28;;;8.17;55.05
26376;BME280;30544;42.196;24.336;2023-02-04T07:46:39;98671.72;;;8.50;54.30
26376;BME280;30544;42.196;24.336;2023-02-04T07:49:07;98684.88;;;8.88;53.12
26376;BME280;30544;42.196;24.336;2023-02-04T07:51:34;98676.31;;;8.90;52.28
26376;BME280;30544;42.196;24.336;2023-02-04T07:54:01;98655.22;;;9.00;51.41
26376;BME280;30544;42.196;24.336;2023-02-04T07:56:27;98663.75;;;9.32;50.71
26376;BME280;30544;42.196;24.336;2023-02-04T07:58:54;98664.94;;;9.20;50.69
26376;BME280;30544;42.196;24.336;2023-02-04T08:01:21;98664.53;;;9.11;50.88
26376;BME280;30544;42.196;24.336;2023-02-04T08:03:48;98653.47;;;9.11;50.22
26376;BME280;30544;42.196;24.336;2023-02-04T08:06:16;98658.41;;;9.09;49.92
26376;BME280;30544;42.196;24.336;2023-02-04T08:08:42;98656.38;;;9.38;48.30
26376;BME280;30544;42.196;24.336;2023-02-04T08:11:09;98643.53;;;9.49;48.92
26376;BME280;30544;42.196;24.336;2023-02-04T08:13:36;98647.44;;;9.14;46.69
26376;BME280;30544;42.196;24.336;2023-02-04T08:16:03;98636.09;;;8.99;47.06
26376;BME280;30544;42.196;24.336;2023-02-04T08:18:30;98638.38;;;9.02;47.17
26376;BME280;30544;42.196;24.336;2023-02-04T08:20:56;98621.22;;;9.39;45.90
26376;BME280;30544;42.196;24.336;2023-02-04T08:23:27;98630.13;;;9.41;46.45
26376;BME280;30544;42.196;24.336;2023-02-04T08:25:53;98626.34;;;9.47;45.61
26376;BME280;30544;42.196;24.336;2023-02-04T08:28:20;98632.00;;;9.57;45.48
26376;BME280;30544;42.196;24.336;2023-02-04T08:30:47;98618.34;;;9.12;46.64
26376;BME280;30544;42.196;24.336;2023-02-04T08:33:14;98625.47;;;9.63;46.19
26376;BME280;30544;42.196;24.336;2023-02-04T08:35:41;98618.56;;;9.65;46.90
26376;BME280;30544;42.196;24.336;2023-02-04T08:38:07;98617.88;;;9.75;46.22
26376;BME280;30544;42.196;24.336;2023-02-04T08:40:35;98617.78;;;9.48;45.01
26376;BME280;30544;42.196;24.336;2023-02-04T08:43:02;98619.22;;;9.94;45.71
26376;BME280;30544;42.196;24.336;2023-02-04T08:45:29;98626.44;;;9.95;44.86
26376;BME280;30544;42.196;24.336;2023-02-04T08:47:56;98611.78;;;10.44;43.64
26376;BME280;30544;42.196;24.336;2023-02-04T08:50:23;98618.25;;;10.54;42.99
26376;BME280;30544;42.196;24.336;2023-02-04T08:52:51;98609.25;;;10.69;42.45
26376;BME280;30544;42.196;24.336;2023-02-04T08:55:17;98610.19;;;10.80;42.63
26376;BME280;30544;42.196;24.336;2023-02-04T08:57:46;98613.94;;;10.64;42.36
26376;BME280;30544;42.196;24.336;2023-02-04T09:00:13;98626.38;;;10.34;41.65
26376;BME280;30544;42.196;24.336;2023-02-04T09:02:40;98607.16;;;10.54;42.51
26376;BME280;30544;42.196;24.336;2023-02-04T09:05:07;98607.72;;;10.83;41.64
26376;BME280;30544;42.196;24.336;2023-02-04T09:07:34;98624.56;;;10.23;42.25
26376;BME280;30544;42.196;24.336;2023-02-04T09:10:00;98616.78;;;9.98;42.24
26376;BME280;30544;42.196;24.336;2023-02-04T09:12:27;98615.81;;;10.09;42.14
26376;BME280;30544;42.196;24.336;2023-02-04T09:14:55;98617.09;;;10.02;42.52
26376;BME280;30544;42.196;24.336;2023-02-04T09:17:22;98620.44;;;10.04;42.69
26376;BME280;30544;42.196;24.336;2023-02-04T09:19:49;98597.81;;;10.12;42.13
26376;BME280;30544;42.196;24.336;2023-02-04T09:22:16;98604.47;;;9.67;43.21
26376;BME280;30544;42.196;24.336;2023-02-04T09:24:43;98604.28;;;9.95;42.81
26376;BME280;30544;42.196;24.336;2023-02-04T09:27:09;98601.28;;;10.46;43.13
26376;BME280;30544;42.196;24.336;2023-02-04T09:29:36;98592.53;;;10.32;42.77
26376;BME280;30544;42.196;24.336;2023-02-04T09:32:04;98605.38;;;9.94;43.18
26376;BME280;30544;42.196;24.336;2023-02-04T09:34:31;98588.66;;;10.33;42.91
26376;BME280;30544;42.196;24.336;2023-02-04T09:36:58;98583.22;;;10.43;43.12
26376;BME280;30544;42.196;24.336;2023-02-04T09:39:25;98582.19;;;10.49;43.07
26376;BME280;30544;42.196;24.336;2023-02-04T09:41:51;98575.81;;;10.81;42.19
26376;BME280;30544;42.196;24.336;2023-02-04T09:44:21;98571.13;;;10.54;42.78
26376;BME280;30544;42.196;24.336;2023-02-04T09:46:51;98566.69;;;10.85;42.48
26376;BME280;30544;42.196;24.336;2023-02-04T09:49:20;98564.69;;;10.76;42.60
26376;BME280;30544;42.196;24.336;2023-02-04T09:51:47;98561.88;;;10.44;42.59
26376;BME280;30544;42.196;24.336;2023-02-04T09:54:16;98568.09;;;10.88;42.28
26376;BME280;30544;42.196;24.336;2023-02-04T09:56:44;98551.41;;;10.83;41.37
26376;BME280;30544;42.196;24.336;2023-02-04T09:59:13;98558.31;;;10.80;42.29
26376;BME280;30544;42.196;24.336;2023-02-04T10:01:40;98550.50;;;11.09;41.96
26376;BME280;30544;42.196;24.336;2023-02-04T10:04:09;98546.47;;;11.27;42.00
26376;BME280;30544;42.196;24.336;2023-02-04T10:06:39;98547.66;;;10.67;41.83
26376;BME280;30544;42.196;24.336;2023-02-04T10:09:08;98544.66;;;10.74;41.64
26376;BME280;30544;42.196;24.336;2023-02-04T10:11:37;98540.19;;;11.05;41.21
26376;BME280;30544;42.196;24.336;2023-02-04T10:14:06;98546.19;;;10.92;42.32
26376;BME280;30544;42.196;24.336;2023-02-04T10:16:35;98558.75;;;10.99;41.52
26376;BME280;30544;42.196;24.336;2023-02-04T10:19:11;98546.28;;;11.02;41.67
26376;BME280;30544;42.196;24.336;2023-02-04T10:21:41;98539.03;;;10.96;40.81
26376;BME280;30544;42.196;24.336;2023-02-04T10:24:13;98536.56;;;11.04;41.44
26376;BME280;30544;42.196;24.336;2023-02-04T10:26:40;98534.50;;;10.52;40.75
26376;BME280;30544;42.196;24.336;2023-02-04T10:29:13;98519.56;;;10.91;40.82
26376;BME280;30544;42.196;24.336;2023-02-04T10:31:41;98528.31;;;11.09;40.42
26376;BME280;30544;42.196;24.336;2023-02-04T10:34:13;98516.31;;;11.04;39.92
26376;BME280;30544;42.196;24.336;2023-02-04T10:36:44;98513.78;;;10.97;40.82
26376;BME280;30544;42.196;24.336;2023-02-04T10:39:14;98516.84;;;11.01;40.80
26376;BME280;30544;42.196;24.336;2023-02-04T10:41:45;98523.22;;;10.96;41.01
26376;BME280;30544;42.196;24.336;2023-02-04T10:44:15;98523.00;;;10.71;41.10
26376;BME280;30544;42.196;24.336;2023-02-04T10:46:42;98504.97;;;10.68;41.51
26376;BME280;30544;42.196;24.336;2023-02-04T10:49:20;98515.66;;;10.92;41.69
26376;BME280;30544;42.196;24.336;2023-02-04T10:51:50;98514.63;;;10.98;42.40
26376;BME280;30544;42.196;24.336;2023-02-04T10:54:19;98515.25;;;10.73;42.83
26376;BME280;30544;42.196;24.336;2023-02-04T10:56:56;98500.88;;;10.76;42.80
26376;BME280;30544;42.196;24.336;2023-02-04T10:59:25;98510.28;;;10.75;42.83
26376;BME280;30544;42.196;24.336;2023-02-04T11:01:54;98515.53;;;10.71;43.20
26376;BME280;30544;42.196;24.336;2023-02-04T11:04:21;98503.59;;;10.71;43.53
26376;BME280;30544;42.196;24.336;2023-02-04T11:06:49;98530.50;;;10.70;43.95
26376;BME280;30544;42.196;24.336;2023-02-04T11:09:17;98536.59;;;10.67;45.44
26376;BME280;30544;42.196;24.336;2023-02-04T11:11:45;98521.63;;;10.73;46.58
26376;BME280;30544;42.196;24.336;2023-02-04T11:14:23;98535.34;;;10.53;46.09
26376;BME280;30544;42.196;24.336;2023-02-04T11:16:50;98529.69;;;10.75;46.32
26376;BME280;30544;42.196;24.336;2023-02-04T11:19:31;98542.59;;;10.27;47.44
26376;BME280;30544;42.196;24.336;2023-02-04T11:22:22;98525.59;;;10.45;48.47
26376;BME280;30544;42.196;24.336;2023-02-04T11:24:49;98527.72;;;10.38;49.35
26376;BME280;30544;42.196;24.336;2023-02-04T11:27:22;98525.47;;;10.35;48.93
26376;BME280;30544;42.196;24.336;2023-02-04T11:29:50;98535.56;;;9.92;50.17
26376;BME280;30544;42.196;24.336;2023-02-04T11:32:29;98510.22;;;10.33;49.95
26376;BME280;30544;42.196;24.336;2023-02-04T11:37:48;98519.25;;;10.50;50.16
26376;BME280;30544;42.196;24.336;2023-02-04T11:40:26;98515.38;;;10.24;49.97
26376;BME280;30544;42.196;24.336;2023-02-04T11:42:58;98515.91;;;10.21;51.15
26376;BME280;30544;42.196;24.336;2023-02-04T11:45:28;98514.63;;;10.07;50.53
26376;BME280;30544;42.196;24.336;2023-02-04T11:47:57;98507.16;;;9.80;52.27
26376;BME280;30544;42.196;24.336;2023-02-04T11:50:26;98504.97;;;9.82;51.10
26376;BME280;30544;42.196;24.336;2023-02-04T11:52:57;98506.66;;;10.10;50.26
26376;BME280;30544;42.196;24.336;2023-02-04T11:55:24;98483.00;;;10.03;50.37
26376;BME280;30544;42.196;24.336;2023-02-04T11:57:53;98500.56;;;10.40;49.75
26376;BME280;30544;42.196;24.336;2023-02-04T12:00:22;98487.19;;;10.64;47.88
26376;BME280;30544;42.196;24.336;2023-02-04T12:02:54;98483.38;;;11.12;47.84
26376;BME280;30544;42.196;24.336;2023-02-04T12:05:21;98488.63;;;11.09;46.91
26376;BME280;30544;42.196;24.336;2023-02-04T12:07:48;98478.19;;;10.84;48.07
26376;BME280;30544;42.196;24.336;2023-02-04T12:10:24;98474.56;;;10.78;48.07
26376;BME280;30544;42.196;24.336;2023-02-04T12:12:53;98483.03;;;10.62;47.33
26376;BME280;30544;42.196;24.336;2023-02-04T12:15:23;98481.13;;;11.09;47.12
26376;BME280;30544;42.196;24.336;2023-02-04T12:18:02;98483.59;;;10.64;48.59
26376;BME280;30544;42.196;24.336;2023-02-04T12:20:29;98479.44;;;10.66;48.83
26376;BME280;30544;42.196;24.336;2023-02-04T12:22:56;98472.00;;;10.08;50.08
26376;BME280;30544;42.196;24.336;2023-02-04T12:25:24;98464.44;;;10.62;50.50
26376;BME280;30544;42.196;24.336;2023-02-04T12:27:51;98488.09;;;10.11;51.22
26376;BME280;30544;42.196;24.336;2023-02-04T12:30:20;98496.94;;;10.35;51.23
26376;BME280;30544;42.196;24.336;2023-02-04T12:32:46;98488.97;;;10.16;51.07
26376;BME280;30544;42.196;24.336;2023-02-04T12:35:13;98499.63;;;9.54;53.26
26376;BME280;30544;42.196;24.336;2023-02-04T12:37:40;98481.38;;;10.07;51.97
26376;BME280;30544;42.196;24.336;2023-02-04T12:40:09;98497.34;;;9.46;53.95
26376;BME280;30544;42.196;24.336;2023-02-04T12:42:37;98496.94;;;9.59;53.54
26376;BME280;30544;42.196;24.336;2023-02-04T12:45:04;98501.13;;;9.88;53.05
26376;BME280;30544;42.196;24.336;2023-02-04T12:47:31;98504.16;;;9.60;53.48
26376;BME280;30544;42.196;24.336;2023-02-04T12:49:58;98503.97;;;9.45;53.89
26376;BME280;30544;42.196;24.336;2023-02-04T12:52:25;98497.41;;;9.29;54.42
26376;BME280;30544;42.196;24.336;2023-02-04T12:54:51;98508.13;;;9.69;54.10
26376;BME280;30544;42.196;24.336;2023-02-04T12:57:18;98506.91;;;9.38;54.58
26376;BME280;30544;42.196;24.336;2023-02-04T12:59:47;98506.16;;;9.04;54.84
26376;BME280;30544;42.196;24.336;2023-02-04T13:02:14;98504.69;;;8.96;54.71
26376;BME280;30544;42.196;24.336;2023-02-04T13:04:41;98502.78;;;9.19;54.07